createdAt,value
2022-08-10T00:00:01.819Z,2.20
2022-08-10T00:02:28.486Z,2.13
2022-08-10T00:04:55.129Z,2.28
2022-08-10T00:07:22.948Z,2.10
2022-08-10T00:09:50.704Z,2.00
2022-08-10T00:12:18.933Z,1.92
2022-08-10T00:14:45.771Z,2.05
2022-08-10T00:17:12.638Z,2.13
2022-08-10T00:20:02.953Z,1.80
2022-08-10T00:22:31.164Z,1.90
2022-08-10T00:24:58.255Z,2.25
2022-08-10T00:27:51.914Z,2.30
2022-08-10T00:30:16.388Z,1.90
2022-08-10T00:32:44.557Z,1.80
2022-08-10T00:35:15.188Z,2.47
2022-08-10T00:37:41.956Z,2.22
2022-08-10T00:40:35.425Z,1.90
2022-08-10T00:43:08.087Z,2.17
2022-08-10T00:45:35.650Z,2.30
2022-08-10T00:48:03.559Z,2.03
2022-08-10T00:50:32.562Z,2.08
2022-08-10T00:53:01.494Z,2.28
2022-08-10T00:55:30.786Z,2.00
2022-08-10T00:57:58.048Z,2.00
2022-08-10T01:00:24.946Z,1.95
2022-08-10T01:02:52.446Z,2.05
2022-08-10T01:05:22.621Z,1.80
2022-08-10T01:08:09.741Z,1.90
2022-08-10T01:11:07.664Z,2.15
2022-08-10T01:14:03.725Z,2.00
2022-08-10T01:16:38.552Z,1.98
2022-08-10T01:19:30.110Z,1.85
2022-08-10T01:22:12.030Z,2.30
2022-08-10T01:24:44.556Z,2.05
2022-08-10T01:30:03.708Z,1.77
2022-08-10T01:41:45.941Z,1.83
2022-08-10T01:44:24.723Z,2.22
2022-08-10T01:47:22.251Z,1.85
2022-08-10T01:50:00.082Z,1.83
2022-08-10T01:52:28.599Z,1.90
2022-08-10T01:54:57.682Z,1.75
2022-08-10T01:57:31.551Z,1.98
2022-08-10T02:00:02.779Z,2.20
2022-08-10T02:02:34.418Z,2.13
2022-08-10T02:05:04.639Z,2.22
2022-08-10T02:07:44.256Z,2.10
2022-08-10T02:10:15.021Z,1.80
2022-08-10T02:12:43.933Z,2.35
2022-08-10T02:15:15.893Z,2.00
2022-08-10T02:17:57.089Z,2.28
2022-08-10T02:20:31.722Z,2.40
2022-08-10T02:23:04.579Z,2.55
2022-08-10T02:25:42.122Z,2.10
2022-08-10T02:28:29.268Z,2.13
2022-08-10T02:31:11.550Z,2.20
2022-08-10T02:33:56.411Z,2.17
2022-08-10T02:36:27.300Z,2.20
2022-08-10T02:39:01.712Z,2.00
2022-08-10T02:45:13.340Z,2.17
2022-08-10T02:45:25.953Z,2.10
2022-08-10T02:47:56.483Z,2.08
2022-08-10T02:50:38.059Z,1.85
2022-08-10T02:53:54.304Z,2.10
2022-08-10T02:56:36.207Z,2.28
2022-08-10T03:02:46.214Z,1.95
2022-08-10T03:05:18.638Z,1.90
2022-08-10T03:08:14.009Z,2.40
2022-08-10T03:10:43.325Z,1.85
2022-08-10T03:13:11.675Z,1.65
2022-08-10T03:15:44.349Z,2.10
2022-08-10T03:20:41.405Z,2.03
2022-08-10T03:23:15.666Z,2.30
2022-08-10T03:25:54.393Z,2.13
2022-08-10T03:28:27.149Z,2.17
2022-08-10T03:30:54.647Z,2.30
2022-08-10T03:33:25.996Z,2.05
2022-08-10T03:36:43.727Z,2.50
2022-08-10T03:38:47.856Z,2.25
2022-08-10T03:41:16.929Z,2.40
2022-08-10T03:43:51.509Z,1.83
2022-08-10T03:46:22.872Z,2.17
2022-08-10T03:48:52.269Z,2.55
2022-08-10T03:51:23.532Z,2.25
2022-08-10T03:54:06.155Z,2.13
2022-08-10T03:56:35.871Z,1.75
2022-08-10T03:59:08.431Z,2.42
2022-08-10T04:02:45.056Z,2.25
2022-08-10T04:04:26.563Z,2.08
2022-08-10T04:06:58.664Z,2.10
2022-08-10T04:09:53.605Z,2.30
2022-08-10T04:12:22.284Z,2.08
2022-08-10T04:20:56.377Z,1.98
2022-08-10T04:23:26.478Z,2.38
2022-08-10T04:25:55.012Z,2.22
2022-08-10T04:28:25.467Z,1.90
2022-08-10T04:30:54.115Z,2.20
2022-08-10T04:33:22.732Z,2.20
2022-08-10T04:35:52.446Z,2.10
2022-08-10T04:38:24.526Z,2.33
2022-08-10T04:40:57.487Z,2.03
2022-08-10T04:43:28.022Z,1.83
2022-08-10T04:45:59.536Z,2.10
2022-08-10T04:48:42.658Z,2.08
2022-08-10T04:51:18.047Z,2.60
2022-08-10T04:54:04.778Z,2.15
2022-08-10T04:56:36.559Z,2.08
2022-08-10T04:59:07.364Z,2.03
2022-08-10T05:02:30.575Z,2.05
2022-08-10T05:04:54.196Z,2.15
2022-08-10T05:07:21.091Z,2.20
2022-08-10T05:10:01.154Z,2.28
2022-08-10T05:12:36.578Z,2.20
2022-08-10T05:15:09.278Z,2.00
2022-08-10T05:17:37.093Z,2.28
2022-08-10T05:20:08.280Z,2.28
2022-08-10T05:22:37.840Z,2.35
2022-08-10T05:25:06.899Z,2.38
2022-08-10T05:27:34.208Z,2.15
2022-08-10T05:30:04.239Z,2.53
2022-08-10T05:32:56.599Z,1.83
2022-08-10T05:35:56.509Z,1.90
2022-08-10T05:38:22.707Z,2.95
2022-08-10T05:40:49.768Z,2.10
2022-08-10T05:43:18.274Z,2.55
2022-08-10T05:46:20.000Z,2.72
2022-08-10T05:48:55.139Z,2.50
2022-08-10T05:51:24.591Z,2.33
2022-08-10T05:54:02.863Z,2.10
2022-08-10T05:56:57.034Z,1.90
2022-08-10T06:00:35.615Z,2.25
2022-08-10T06:02:35.453Z,2.63
2022-08-10T06:05:07.872Z,2.72
2022-08-10T06:07:38.519Z,3.33
2022-08-10T06:10:10.463Z,2.00
2022-08-10T06:13:23.712Z,2.30
2022-08-10T06:15:59.751Z,1.73
2022-08-10T06:18:26.548Z,1.80
2022-08-10T06:20:56.655Z,1.92
2022-08-10T06:23:25.474Z,1.52
2022-08-10T06:26:10.584Z,2.08
2022-08-10T06:29:19.371Z,2.10
2022-08-10T06:31:50.457Z,1.90
2022-08-10T06:40:31.987Z,2.53
2022-08-10T06:43:00.636Z,1.77
2022-08-10T06:45:35.540Z,2.05
2022-08-10T06:48:09.423Z,2.20
2022-08-10T06:50:56.405Z,1.83
2022-08-10T06:53:54.327Z,2.20
2022-08-10T06:56:36.687Z,2.00
2022-08-10T06:59:21.284Z,2.08
2022-08-10T07:02:14.857Z,2.15
2022-08-10T07:04:58.849Z,2.15
2022-08-10T07:07:31.439Z,2.20
2022-08-10T07:12:30.003Z,2.30
2022-08-10T07:14:58.685Z,2.00
2022-08-10T07:17:26.799Z,2.40
2022-08-10T07:19:59.051Z,2.35
2022-08-10T07:23:02.569Z,1.88
2022-08-10T07:25:26.473Z,1.90
2022-08-10T07:28:00.511Z,3.03
2022-08-10T07:30:39.015Z,1.75
2022-08-10T07:33:06.804Z,2.15
2022-08-10T07:35:43.209Z,1.77
2022-08-10T07:38:16.501Z,1.70
2022-08-10T07:40:47.959Z,1.60
2022-08-10T07:43:20.027Z,1.67
2022-08-10T07:45:56.236Z,1.58
2022-08-10T07:48:34.396Z,1.67
2022-08-10T07:51:02.176Z,1.70
2022-08-10T07:53:39.208Z,1.77
2022-08-10T07:56:25.986Z,2.00
2022-08-10T07:59:08.079Z,1.50
2022-08-10T08:01:40.282Z,1.60
2022-08-10T08:06:46.213Z,1.30
2022-08-10T08:09:13.050Z,1.88
2022-08-10T08:11:43.601Z,1.80
2022-08-10T08:14:16.562Z,1.63
2022-08-10T08:16:48.260Z,1.50
2022-08-10T08:19:37.974Z,1.45
2022-08-10T08:24:10.315Z,1.67
2022-08-10T08:24:54.949Z,1.52
2022-08-10T08:27:23.859Z,1.40
2022-08-10T08:29:51.956Z,1.50
2022-08-10T08:32:24.547Z,1.40
2022-08-10T08:35:12.417Z,1.60
2022-08-10T08:38:30.417Z,1.50
2022-08-10T08:40:34.449Z,1.70
2022-08-10T08:43:31.938Z,1.60
2022-08-10T08:46:17.510Z,1.38
2022-08-10T08:49:14.632Z,1.50
2022-08-10T08:52:34.985Z,1.80
2022-08-10T08:59:02.914Z,2.05
2022-08-10T09:02:28.641Z,1.83
2022-08-10T09:05:02.992Z,1.70
2022-08-10T09:08:16.590Z,1.90
2022-08-10T09:10:52.222Z,1.55
2022-08-10T09:13:37.093Z,1.50
2022-08-10T09:16:25.358Z,1.70
2022-08-10T09:19:34.649Z,1.70
2022-08-10T09:22:21.229Z,1.55
2022-08-10T09:24:58.081Z,2.38
2022-08-10T09:27:50.081Z,1.52
2022-08-10T09:30:32.952Z,1.40
2022-08-10T09:36:19.403Z,2.00
2022-08-10T09:36:24.063Z,1.05
2022-08-10T09:39:07.366Z,1.40
2022-08-10T09:41:57.298Z,1.48
2022-08-10T09:44:57.413Z,1.50
2022-08-10T09:48:02.696Z,1.30
2022-08-10T09:51:34.491Z,1.67
2022-08-10T09:54:07.016Z,1.75
2022-08-10T09:56:50.527Z,1.40
2022-08-10T10:00:00.459Z,1.50
2022-08-10T10:02:41.001Z,1.50
2022-08-10T10:05:52.052Z,1.70
2022-08-10T10:08:40.749Z,1.77
2022-08-10T10:11:28.287Z,1.50
2022-08-10T10:14:12.618Z,1.70
2022-08-10T10:16:54.602Z,1.85
2022-08-10T10:19:43.095Z,1.80
2022-08-10T10:22:25.434Z,1.38
2022-08-10T10:25:01.530Z,1.70
2022-08-10T10:28:44.352Z,1.40
2022-08-10T10:31:55.029Z,1.60
2022-08-10T10:34:50.360Z,1.83
2022-08-10T10:37:21.788Z,1.75
2022-08-10T10:40:10.405Z,1.70
2022-08-10T10:42:48.037Z,1.58
2022-08-10T10:45:26.974Z,2.40
2022-08-10T10:47:59.156Z,1.40
2022-08-10T10:50:40.677Z,2.08
2022-08-10T10:53:21.228Z,2.50
2022-08-10T10:56:14.713Z,1.52
2022-08-10T10:58:55.305Z,1.48
2022-08-10T11:01:37.884Z,1.27
2022-08-10T11:04:24.380Z,1.35
2022-08-10T11:07:30.971Z,1.40
2022-08-10T11:10:35.201Z,1.30
2022-08-10T11:14:25.362Z,0.95
2022-08-10T11:16:52.905Z,1.27
2022-08-10T11:20:02.782Z,1.58
2022-08-10T11:22:36.781Z,1.20
2022-08-10T11:25:21.890Z,1.38
2022-08-10T11:28:08.899Z,1.33
2022-08-10T11:31:01.936Z,1.30
2022-08-10T11:34:03.750Z,1.40
2022-08-10T11:36:55.444Z,1.45
2022-08-10T11:39:30.607Z,1.08
2022-08-10T11:42:28.938Z,1.30
2022-08-10T11:45:04.801Z,1.30
2022-08-10T11:47:51.186Z,1.30
2022-08-10T11:50:36.278Z,1.23
2022-08-10T11:53:09.039Z,1.25
2022-08-10T11:55:38.890Z,1.55
2022-08-10T11:58:31.589Z,1.17
2022-08-10T12:01:07.136Z,1.23
2022-08-10T12:03:36.867Z,1.50
2022-08-10T12:06:12.574Z,1.30
2022-08-10T12:10:04.663Z,1.20
2022-08-10T12:11:32.570Z,1.42
2022-08-10T12:14:22.346Z,1.48
2022-08-10T12:17:30.240Z,1.50
2022-08-10T12:20:07.411Z,1.30
2022-08-10T12:22:50.800Z,1.70
2022-08-10T12:25:56.696Z,1.40
2022-08-10T12:28:51.262Z,1.30
2022-08-10T12:31:45.677Z,1.40
2022-08-10T12:34:28.911Z,1.75
2022-08-10T12:37:15.369Z,1.20
2022-08-10T12:39:51.170Z,1.30
2022-08-10T12:42:39.084Z,1.40
2022-08-10T12:48:16.697Z,1.30
2022-08-10T12:50:56.280Z,1.30
2022-08-10T12:53:53.500Z,1.50
2022-08-10T12:56:31.158Z,1.40
2022-08-10T12:59:25.243Z,1.45
2022-08-10T13:02:06.618Z,1.17
2022-08-10T13:04:42.375Z,1.10
2022-08-10T13:07:10.170Z,1.17
2022-08-10T13:09:54.833Z,1.27
2022-08-10T13:12:37.274Z,1.60
2022-08-10T13:15:48.888Z,1.42
2022-08-10T13:18:45.331Z,1.50
2022-08-10T13:21:20.632Z,1.40
2022-08-10T13:24:05.156Z,1.35
2022-08-10T13:26:38.082Z,1.75
2022-08-10T13:29:41.493Z,1.58
2022-08-10T13:32:13.565Z,2.67
2022-08-10T13:34:45.729Z,1.95
2022-08-10T13:37:19.366Z,1.40
2022-08-10T13:39:58.886Z,1.40
2022-08-10T13:42:32.122Z,1.83
2022-08-10T13:45:16.569Z,1.60
2022-08-10T13:47:50.169Z,1.63
2022-08-10T13:50:34.870Z,1.40
2022-08-10T13:53:14.868Z,1.60
2022-08-10T13:55:56.192Z,1.65
2022-08-10T13:58:25.445Z,1.38
2022-08-10T14:01:01.655Z,1.13
2022-08-10T14:03:36.798Z,1.65
2022-08-10T14:06:18.778Z,1.23
2022-08-10T14:08:53.951Z,1.30
2022-08-10T14:11:27.114Z,1.45
2022-08-10T14:14:07.193Z,1.58
2022-08-10T14:16:41.427Z,1.53
2022-08-10T14:19:14.565Z,1.10
2022-08-10T14:21:43.193Z,1.25
2022-08-10T14:24:25.646Z,1.50
2022-08-10T14:27:10.727Z,1.30
2022-08-10T14:29:45.542Z,1.13
2022-08-10T14:32:17.877Z,1.30
2022-08-10T14:36:17.303Z,1.30
2022-08-10T14:38:17.273Z,1.65
2022-08-10T14:40:49.485Z,1.30
2022-08-10T14:43:37.532Z,1.20
2022-08-10T14:46:19.586Z,1.30
2022-08-10T14:48:52.380Z,1.20
2022-08-10T14:51:26.973Z,1.40
2022-08-10T14:54:16.211Z,1.20
2022-08-10T14:56:49.140Z,1.30
2022-08-10T14:59:18.049Z,1.85
2022-08-10T15:02:00.312Z,1.20
2022-08-10T15:04:38.326Z,1.60
2022-08-10T15:07:21.183Z,1.27
2022-08-10T15:10:01.516Z,1.38
2022-08-10T15:12:34.917Z,1.25
2022-08-10T15:15:08.968Z,1.70
2022-08-10T15:17:41.263Z,1.35
2022-08-10T15:20:20.798Z,1.40
2022-08-10T15:23:30.774Z,1.20
2022-08-10T15:26:19.122Z,1.10
2022-08-10T15:29:08.536Z,1.17
2022-08-10T15:34:40.848Z,1.50
2022-08-10T15:37:39.301Z,1.48
2022-08-10T15:40:22.083Z,1.38
2022-08-10T15:43:25.422Z,1.52
2022-08-10T15:46:01.230Z,1.40
2022-08-10T15:48:51.299Z,1.80
2022-08-10T15:51:28.498Z,1.52
2022-08-10T15:54:12.229Z,1.20
2022-08-10T15:56:51.952Z,1.25
2022-08-10T15:59:33.839Z,1.52
2022-08-10T16:05:05.750Z,1.33
2022-08-10T16:08:00.383Z,1.27
2022-08-10T16:10:38.702Z,1.40
2022-08-10T16:13:59.298Z,1.75
2022-08-10T16:16:03.641Z,1.50
2022-08-10T16:18:40.109Z,1.30
2022-08-10T16:24:17.213Z,1.27
2022-08-10T16:26:50.969Z,1.30
2022-08-10T16:29:24.780Z,1.50
2022-08-10T16:31:55.078Z,1.30
2022-08-10T16:34:32.108Z,1.35
2022-08-10T16:37:07.032Z,1.70
2022-08-10T16:39:59.839Z,1.33
2022-08-10T16:42:35.024Z,1.10
2022-08-10T16:45:16.813Z,1.27
2022-08-10T16:47:48.695Z,1.33
2022-08-10T16:50:41.973Z,1.48
2022-08-10T16:53:15.991Z,1.40
2022-08-10T16:55:52.975Z,1.40
2022-08-10T16:58:35.745Z,1.50
2022-08-10T17:01:14.039Z,1.48
2022-08-10T17:04:11.135Z,1.50
2022-08-10T17:15:25.720Z,2.10
2022-08-10T17:18:00.189Z,1.45
2022-08-10T17:20:32.722Z,1.70
2022-08-10T17:23:07.094Z,1.60
2022-08-10T17:25:46.346Z,1.55
2022-08-10T17:31:24.271Z,1.45
2022-08-10T17:34:30.789Z,1.40
2022-08-10T17:37:01.206Z,2.22
2022-08-10T17:39:33.475Z,1.55
2022-08-10T17:42:05.686Z,1.60
2022-08-10T17:44:39.971Z,1.58
2022-08-10T17:47:10.846Z,1.60
2022-08-10T17:49:42.857Z,1.60
2022-08-10T17:52:13.226Z,1.40
2022-08-10T17:54:46.412Z,1.27
2022-08-10T17:57:22.415Z,1.70
2022-08-10T17:59:51.676Z,1.85
2022-08-10T18:02:45.637Z,1.60
2022-08-10T18:05:13.784Z,1.15
2022-08-10T18:07:52.128Z,1.60
2022-08-10T18:10:21.370Z,2.15
2022-08-10T18:12:54.003Z,1.85
2022-08-10T18:15:23.883Z,1.60
2022-08-10T18:18:02.798Z,1.80
2022-08-10T18:20:38.147Z,1.98
2022-08-10T18:23:07.513Z,2.38
2022-08-10T18:25:39.512Z,1.73
2022-08-10T18:30:49.520Z,1.98
2022-08-10T18:33:27.876Z,2.08
2022-08-10T18:36:01.032Z,2.25
2022-08-10T18:38:31.842Z,2.20
2022-08-10T18:41:10.908Z,2.38
2022-08-10T18:44:10.566Z,2.35
2022-08-10T18:46:46.697Z,2.85
2022-08-10T18:49:25.192Z,2.60
2022-08-10T18:51:57.722Z,2.53
2022-08-10T18:54:39.147Z,2.33
2022-08-10T18:57:47.623Z,2.00
2022-08-10T19:00:28.713Z,2.50
2022-08-10T19:03:22.900Z,2.78
2022-08-10T19:06:25.423Z,2.20
2022-08-10T19:09:45.523Z,2.22
2022-08-10T19:12:58.413Z,2.50
2022-08-10T19:16:16.033Z,2.33
2022-08-10T19:19:22.304Z,2.83
2022-08-10T19:22:20.529Z,2.30
2022-08-10T19:24:56.486Z,3.35
2022-08-10T19:28:00.108Z,3.13
2022-08-10T19:30:50.010Z,2.70
2022-08-10T19:34:11.352Z,2.50
2022-08-10T19:37:36.268Z,2.67
2022-08-10T19:40:44.258Z,2.25
2022-08-10T19:44:00.844Z,2.50
2022-08-10T19:46:50.986Z,2.00
2022-08-10T19:49:49.503Z,2.22
2022-08-10T19:52:42.430Z,2.05
2022-08-10T19:55:36.828Z,1.88
2022-08-10T19:58:51.979Z,2.05
2022-08-10T20:01:19.646Z,2.58
2022-08-10T20:03:52.212Z,1.70
2022-08-10T20:06:53.873Z,1.88
2022-08-10T20:09:39.655Z,1.92
2022-08-10T20:12:15.319Z,1.80
2022-08-10T20:14:49.524Z,1.95
2022-08-10T20:17:51.023Z,1.65
2022-08-10T20:21:01.110Z,1.77
2022-08-10T20:23:35.946Z,1.55
2022-08-10T20:26:40.201Z,1.70
2022-08-10T20:29:16.429Z,1.90
2022-08-10T20:32:11.509Z,1.60
2022-08-10T20:34:41.074Z,1.92
2022-08-10T20:38:02.735Z,1.60
2022-08-10T20:40:38.583Z,2.10
2022-08-10T20:43:24.000Z,2.85
2022-08-10T20:46:10.400Z,2.60
2022-08-10T20:48:43.586Z,2.00
2022-08-10T20:51:18.533Z,1.90
2022-08-10T20:53:51.323Z,1.83
2022-08-10T20:57:06.393Z,1.85
2022-08-10T21:00:12.133Z,2.00
2022-08-10T21:03:21.206Z,1.88
2022-08-10T21:06:07.823Z,1.73
2022-08-10T21:08:58.491Z,2.35
2022-08-10T21:11:52.339Z,2.17
2022-08-10T21:14:56.725Z,1.70
2022-08-10T21:21:07.765Z,1.88
2022-08-10T21:23:37.909Z,1.98
2022-08-10T21:26:08.146Z,2.00
2022-08-10T21:28:49.784Z,1.88
2022-08-10T21:31:22.881Z,1.90
2022-08-10T21:34:18.328Z,1.80
2022-08-10T21:37:17.984Z,1.80
2022-08-10T21:40:35.583Z,1.80
2022-08-10T21:43:44.171Z,1.80
2022-08-10T21:46:55.076Z,1.85
2022-08-10T21:53:04.283Z,1.60
2022-08-10T21:56:14.351Z,1.70
2022-08-10T21:59:25.711Z,1.73
2022-08-10T22:02:22.077Z,1.80
2022-08-10T22:05:18.290Z,2.00
2022-08-10T22:08:12.272Z,1.98
2022-08-10T22:11:06.011Z,1.65
2022-08-10T22:13:55.810Z,2.00
2022-08-10T22:17:03.962Z,1.90
2022-08-10T22:19:53.486Z,2.10
2022-08-10T22:22:56.151Z,2.00
2022-08-10T22:25:52.168Z,1.80
2022-08-10T22:28:39.088Z,1.65
2022-08-10T22:31:52.821Z,1.67
2022-08-10T22:34:44.263Z,1.73
2022-08-10T22:37:45.017Z,1.67
2022-08-10T22:40:41.464Z,2.00
2022-08-10T22:44:02.771Z,2.10
2022-08-10T22:46:52.255Z,1.63
2022-08-10T22:49:23.146Z,2.00
2022-08-10T22:52:07.236Z,1.63
2022-08-10T22:55:11.949Z,1.70
2022-08-10T22:58:50.380Z,1.40
2022-08-10T23:01:41.613Z,1.60
2022-08-10T23:04:35.914Z,1.50
2022-08-10T23:07:28.360Z,1.65
2022-08-10T23:10:21.476Z,1.52
2022-08-10T23:12:51.296Z,2.00
2022-08-10T23:15:57.568Z,1.90
2022-08-10T23:19:00.319Z,1.90
2022-08-10T23:22:02.862Z,1.60
2022-08-10T23:24:50.295Z,1.85
2022-08-10T23:27:37.747Z,1.70
2022-08-10T23:30:17.620Z,2.10
2022-08-10T23:32:48.491Z,1.52
2022-08-10T23:36:28.168Z,1.50
2022-08-10T23:38:09.952Z,1.58
2022-08-10T23:40:41.345Z,1.58
2022-08-10T23:43:14.337Z,1.33
2022-08-10T23:45:52.546Z,1.80
2022-08-10T23:48:30.336Z,1.45
2022-08-10T23:51:16.502Z,1.58
2022-08-10T23:53:47.161Z,1.67
2022-08-10T23:56:18.494Z,2.10
2022-08-10T23:58:46.016Z,1.85
